Time;durP1;ratioP1;P1;durP2;ratioP2;P2;SDS_P1;SDS_P2;PMS_P1;PMS_P2;Temp;Humidity;BMP_temperature;BMP_pressure;BME280_temperature;BME280_humidity;BME280_pressure;Samples;Min_cycle;Max_cycle;Signal;HPM_P1;HPM_P2
2022/06/16 00:01:25;;;;;;;6.20;2.58;;;14.60;99.90;;;;;;5021210;28;20046;-58
2022/06/16 00:03:51;;;;;;;10.25;3.53;;;14.60;99.90;;;;;;5020066;28;20046;-59
2022/06/16 00:06:16;;;;;;;9.52;2.80;;;14.60;99.90;;;;;;5020265;28;20511;-58
2022/06/16 00:08:42;;;;;;;6.30;2.38;;;14.60;99.90;;;;;;5020821;28;20038;-59
2022/06/16 00:11:16;;;;;;;7.72;2.85;;;14.50;99.90;;;;;;5019089;28;20042;-59
2022/06/16 00:13:43;;;;;;;7.35;2.60;;;14.40;99.90;;;;;;5021085;28;20038;-60
2022/06/16 00:16:09;;;;;;;7.07;2.72;;;14.40;99.90;;;;;;5019048;28;20046;-59
2022/06/16 00:18:35;;;;;;;8.77;3.28;;;14.40;99.90;;;;;;5020784;28;20099;-60
2022/06/16 00:21:01;;;;;;;6.72;3.08;;;14.20;99.90;;;;;;5019586;28;20080;-59
2022/06/16 00:23:28;;;;;;;8.50;3.08;;;14.30;99.90;;;;;;5020152;28;20042;-60
2022/06/16 00:25:53;;;;;;;6.90;3.10;;;14.30;99.90;;;;;;5020427;28;20049;-60
2022/06/16 00:28:19;;;;;;;8.13;3.38;;;14.30;99.90;;;;;;5019069;28;20930;-59
2022/06/16 00:30:45;;;;;;;7.72;3.45;;;14.20;99.90;;;;;;5020986;28;20050;-59
2022/06/16 00:33:11;;;;;;;8.27;4.00;;;14.30;99.90;;;;;;5018692;28;20046;-59
2022/06/16 00:35:36;;;;;;;7.97;4.05;;;14.30;99.90;;;;;;5020488;28;20065;-59
2022/06/16 00:38:02;;;;;;;8.52;3.63;;;14.40;99.90;;;;;;5019205;28;20037;-59
2022/06/16 00:40:28;;;;;;;6.85;3.47;;;14.00;99.90;;;;;;5019748;28;20249;-59
2022/06/16 00:42:54;;;;;;;7.57;3.58;;;14.30;99.90;;;;;;5020166;28;20034;-59
2022/06/16 00:45:44;;;;;;;8.32;3.60;;;14.30;99.90;;;;;;5018590;28;20042;-59
2022/06/16 00:48:35;;;;;;;7.35;3.75;;;14.30;99.90;;;;;;5020572;28;20041;-59
2022/06/16 00:51:31;;;;;;;6.95;3.72;;;14.30;99.90;;;;;;5005925;28;20114;-58
2022/06/16 00:54:30;;;;;;;9.32;4.03;;;14.20;99.90;;;;;;5018658;28;20137;-59
2022/06/16 00:57:02;;;;;;;8.95;3.65;;;14.10;99.90;;;;;;4999681;28;20786;-59
2022/06/16 00:59:28;;;;;;;8.15;3.95;;;14.10;99.90;;;;;;5019171;28;20093;-59
2022/06/16 01:01:54;;;;;;;10.20;4.00;;;14.20;99.90;;;;;;5019535;28;20053;-59
2022/06/16 01:07:11;;;;;;;8.68;3.67;;;14.00;99.90;;;;;;5018015;28;20147;-59
2022/06/16 01:09:38;;;;;;;8.50;3.88;;;14.00;99.90;;;;;;5019849;28;20081;-59
2022/06/16 01:15:23;;;;;;;8.07;3.90;;;14.10;99.90;;;;;;5018626;28;20061;-60
2022/06/16 01:17:51;;;;;;;7.63;3.53;;;13.80;99.90;;;;;;5019995;28;20052;-59
2022/06/16 01:20:38;;;;;;;7.57;3.70;;;13.80;99.90;;;;;;5017980;28;20064;-59
2022/06/16 01:23:40;;;;;;;8.88;3.88;;;13.90;99.90;;;;;;5019699;28;20527;-60
2022/06/16 01:26:44;;;;;;;7.90;3.47;;;13.80;99.90;;;;;;5019965;28;20045;-59
2022/06/16 01:29:21;;;;;;;7.32;3.58;;;13.90;99.90;;;;;;5018082;28;20054;-59
2022/06/16 01:32:08;;;;;;;7.30;3.42;;;13.90;99.90;;;;;;5019362;28;20131;-59
2022/06/16 01:34:54;;;;;;;7.03;3.60;;;14.00;99.90;;;;;;5019888;28;20050;-59
2022/06/16 01:37:50;;;;;;;10.35;3.40;;;14.00;99.90;;;;;;5017743;28;20050;-59
2022/06/16 01:40:31;;;;;;;8.77;3.60;;;14.00;99.90;;;;;;5019361;28;20046;-60
2022/06/16 01:43:18;;;;;;;6.90;3.33;;;13.90;99.90;;;;;;5019105;28;20038;-59
2022/06/16 01:46:01;;;;;;;8.13;3.17;;;13.90;99.90;;;;;;5017826;28;20061;-59
2022/06/16 01:48:29;;;;;;;7.97;3.50;;;13.90;99.90;;;;;;5019406;28;20497;-59
2022/06/16 01:51:02;;;;;;;7.05;3.33;;;14.00;99.90;;;;;;5018437;28;20053;-58
2022/06/16 01:53:33;;;;;;;7.45;3.10;;;14.00;99.90;;;;;;5018853;28;20129;-60
2022/06/16 01:56:25;;;;;;;8.48;3.55;;;14.00;99.90;;;;;;5019659;28;20053;-60
2022/06/16 01:58:57;;;;;;;8.85;3.38;;;14.00;99.90;;;;;;5017707;28;20037;-59
2022/06/16 02:01:28;;;;;;;9.77;3.22;;;14.00;99.90;;;;;;5001648;28;20038;-59
2022/06/16 02:04:04;;;;;;;8.50;3.25;;;14.00;99.90;;;;;;5018248;28;20545;-59
2022/06/16 02:06:33;;;;;;;11.23;4.15;;;14.10;99.90;;;;;;5018329;28;20049;-59
2022/06/16 02:09:06;;;;;;;7.10;3.20;;;14.00;99.90;;;;;;5019496;28;20117;-59
2022/06/16 02:11:34;;;;;;;8.52;3.67;;;14.10;99.90;;;;;;5017627;28;20042;-59
2022/06/16 02:14:14;;;;;;;8.32;3.80;;;14.10;99.90;;;;;;5019211;28;20057;-59
2022/06/16 02:16:41;;;;;;;7.15;3.92;;;14.10;99.90;;;;;;5021673;28;20101;-59
2022/06/16 02:19:13;;;;;;;8.00;4.03;;;14.00;99.90;;;;;;5022094;28;20100;-59
2022/06/16 02:21:49;;;;;;;10.27;3.92;;;14.10;99.90;;;;;;5022616;28;20112;-59
2022/06/16 02:24:26;;;;;;;8.43;4.15;;;14.00;99.90;;;;;;5021123;28;20117;-60
2022/06/16 02:26:59;;;;;;;7.13;3.60;;;13.90;99.90;;;;;;5023033;28;20045;-60
2022/06/16 02:29:39;;;;;;;7.80;3.80;;;13.90;99.90;;;;;;5021658;28;20038;-60
2022/06/16 02:32:46;;;;;;;7.53;3.50;;;13.90;99.90;;;;;;5021887;28;20034;-60
2022/06/16 02:35:36;;;;;;;8.95;4.07;;;13.90;99.90;;;;;;5023056;28;20072;-60
2022/06/16 02:38:40;;;;;;;8.20;3.53;;;13.80;99.90;;;;;;5021569;28;20052;-60
2022/06/16 02:41:18;;;;;;;7.53;3.83;;;13.80;99.90;;;;;;4999380;28;20108;-59
2022/06/16 02:44:02;;;;;;;11.60;3.78;;;13.70;99.90;;;;;;5022526;28;20058;-59
2022/06/16 02:46:39;;;;;;;9.15;3.20;;;13.70;99.90;;;;;;5021170;28;20054;-59
2022/06/16 02:49:12;;;;;;;8.25;3.78;;;13.70;99.90;;;;;;5021817;28;20042;-60
2022/06/16 02:51:48;;;;;;;6.57;3.20;;;13.60;99.90;;;;;;5022408;28;20050;-59
2022/06/16 02:54:20;;;;;;;7.50;2.95;;;13.70;99.90;;;;;;5020578;28;20057;-59
2022/06/16 02:56:53;;;;;;;8.63;3.20;;;13.60;99.90;;;;;;5022627;28;20065;-59
2022/06/16 02:59:27;;;;;;;6.93;3.28;;;13.60;99.90;;;;;;5021050;28;20085;-59
2022/06/16 03:02:04;;;;;;;8.63;3.40;;;13.60;99.90;;;;;;5004034;28;21003;-59
2022/06/16 03:04:38;;;;;;;6.82;3.13;;;13.50;99.90;;;;;;5022181;28;20052;-58
2022/06/16 03:07:04;;;;;;;9.13;3.45;;;13.40;99.90;;;;;;5020358;28;20093;-59
2022/06/16 03:09:30;;;;;;;8.18;3.53;;;13.50;99.90;;;;;;5004391;28;20053;-58
2022/06/16 03:11:56;;;;;;;7.18;3.30;;;13.40;99.90;;;;;;5020568;28;20042;-59
2022/06/16 03:14:22;;;;;;;9.15;3.30;;;13.50;99.90;;;;;;5021404;28;20045;-58
2022/06/16 03:16:48;;;;;;;8.88;3.70;;;13.50;99.90;;;;;;5021195;28;20100;-58
2022/06/16 03:19:14;;;;;;;7.75;3.30;;;13.50;99.90;;;;;;5020965;28;20037;-58
2022/06/16 03:21:39;;;;;;;6.32;3.22;;;13.40;99.90;;;;;;5004258;28;20113;-58
2022/06/16 03:24:05;;;;;;;6.80;3.17;;;13.40;99.90;;;;;;5019910;28;20045;-58
2022/06/16 03:26:31;;;;;;;6.07;2.78;;;13.40;99.90;;;;;;5021196;28;20038;-58
2022/06/16 03:28:56;;;;;;;7.88;3.13;;;13.50;99.90;;;;;;5019920;28;20045;-59
2022/06/16 03:31:22;;;;;;;8.93;3.50;;;13.50;99.90;;;;;;5004075;28;20101;-59
2022/06/16 03:33:48;;;;;;;7.80;3.13;;;13.40;99.90;;;;;;5020736;28;20108;-59
2022/06/16 03:36:14;;;;;;;7.25;3.63;;;13.50;99.90;;;;;;5020825;28;20410;-58
2022/06/16 03:38:43;;;;;;;6.63;3.30;;;13.50;99.90;;;;;;5021410;28;20109;-59
2022/06/16 03:41:11;;;;;;;8.60;3.53;;;13.50;99.90;;;;;;5020024;28;20434;-59
2022/06/16 03:43:37;;;;;;;7.43;3.45;;;13.60;99.90;;;;;;5021441;28;20054;-59
2022/06/16 03:46:03;;;;;;;7.78;3.78;;;13.50;99.90;;;;;;5019662;28;20041;-59
2022/06/16 03:48:29;;;;;;;9.50;3.88;;;13.50;99.90;;;;;;5021438;28;20097;-59
2022/06/16 03:50:55;;;;;;;9.15;4.28;;;13.50;99.90;;;;;;5020026;28;20070;-58
2022/06/16 03:53:21;;;;;;;11.00;4.78;;;13.40;99.90;;;;;;5020477;28;20120;-59
2022/06/16 03:55:46;;;;;;;9.07;4.22;;;13.40;99.90;;;;;;5020852;28;20045;-59
2022/06/16 03:58:13;;;;;;;10.30;4.85;;;13.40;99.90;;;;;;5019599;28;20041;-58
2022/06/16 04:00:40;;;;;;;8.32;4.32;;;13.40;99.90;;;;;;5021482;28;20041;-59
2022/06/16 04:05:51;;;;;;;9.23;4.38;;;13.30;99.90;;;;;;5020695;28;20056;-58
2022/06/16 04:08:17;;;;;;;8.07;4.25;;;13.40;99.90;;;;;;5020510;28;20049;-58
2022/06/16 04:10:43;;;;;;;8.90;4.82;;;13.50;99.90;;;;;;5019695;28;20084;-60
2022/06/16 04:13:09;;;;;;;11.43;5.50;;;13.60;99.90;;;;;;5021009;28;20516;-59
2022/06/16 04:15:35;;;;;;;8.32;4.88;;;13.60;99.90;;;;;;5018870;28;20077;-59
2022/06/16 04:18:01;;;;;;;9.05;4.50;;;13.70;99.90;;;;;;5020965;28;20073;-59
2022/06/16 04:20:28;;;;;;;8.90;5.15;;;13.70;99.90;;;;;;5019132;28;20097;-59
2022/06/16 04:22:53;;;;;;;9.45;5.43;;;13.70;99.90;;;;;;5020388;28;20193;-59
2022/06/16 04:25:21;;;;;;;11.25;6.53;;;13.80;99.90;;;;;;5019503;28;20073;-58
2022/06/16 04:27:48;;;;;;;10.15;4.70;;;13.90;99.90;;;;;;5019889;28;20145;-59
2022/06/16 04:30:15;;;;;;;12.60;5.80;;;14.00;99.90;;;;;;5020589;28;20042;-59
2022/06/16 04:32:42;;;;;;;10.02;5.93;;;14.00;99.90;;;;;;5018725;28;20037;-60
2022/06/16 04:35:08;;;;;;;9.45;5.30;;;14.00;99.90;;;;;;5020704;28;20410;-59
2022/06/16 04:37:33;;;;;;;10.35;5.25;;;14.10;99.90;;;;;;5001117;28;20041;-59
2022/06/16 04:40:00;;;;;;;8.68;4.70;;;14.30;99.90;;;;;;5020044;28;20049;-61
2022/06/16 04:42:25;;;;;;;11.82;5.30;;;14.40;99.90;;;;;;5019458;28;20034;-60
2022/06/16 04:44:51;;;;;;;8.18;4.65;;;14.40;99.90;;;;;;5019233;28;20072;-60
2022/06/16 04:47:17;;;;;;;8.63;4.30;;;14.50;99.90;;;;;;5020399;28;20045;-58
2022/06/16 04:49:48;;;;;;;11.18;4.68;;;14.60;99.90;;;;;;5018669;28;20110;-60
2022/06/16 04:52:16;;;;;;;8.40;3.75;;;14.90;99.90;;;;;;5020621;28;20042;-60
2022/06/16 04:54:46;;;;;;;8.70;3.92;;;15.10;99.90;;;;;;5018495;28;20120;-59
2022/06/16 04:57:12;;;;;;;9.88;4.13;;;15.30;99.90;;;;;;5020144;28;20053;-60
2022/06/16 04:59:38;;;;;;;9.38;4.70;;;15.40;99.90;;;;;;5019391;28;20042;-59
2022/06/16 05:02:04;;;;;;;8.93;3.90;;;15.10;99.90;;;;;;5019012;28;20100;-59
2022/06/16 05:04:30;;;;;;;8.88;3.55;;;15.20;99.90;;;;;;5019936;28;20057;-59
2022/06/16 05:06:56;;;;;;;10.27;3.95;;;15.40;99.90;;;;;;5018348;28;20030;-59
2022/06/16 05:09:25;;;;;;;9.05;3.90;;;15.50;99.90;;;;;;5020317;28;20058;-59
2022/06/16 05:11:51;;;;;;;8.93;3.65;;;15.60;99.90;;;;;;5018315;28;20073;-59
2022/06/16 05:14:16;;;;;;;9.32;2.90;;;15.40;99.90;;;;;;5001951;28;20053;-60
2022/06/16 05:16:42;;;;;;;7.18;2.63;;;15.60;99.90;;;;;;5018914;28;20069;-59
2022/06/16 05:19:08;;;;;;;8.48;2.30;;;15.70;99.90;;;;;;5019079;28;20510;-60
2022/06/16 05:21:34;;;;;;;8.48;2.33;;;15.70;99.90;;;;;;5001686;28;20065;-60
2022/06/16 05:24:00;;;;;;;7.90;2.80;;;15.70;99.90;;;;;;5018123;28;20056;-60
2022/06/16 05:26:26;;;;;;;7.93;2.60;;;15.60;99.90;;;;;;5020239;28;20069;-60
2022/06/16 05:28:51;;;;;;;8.02;2.65;;;15.60;99.90;;;;;;5000306;28;20057;-59
2022/06/16 05:31:17;;;;;;;9.02;3.25;;;15.50;99.90;;;;;;5019840;28;20085;-59
2022/06/16 05:33:43;;;;;;;7.10;2.60;;;15.70;99.90;;;;;;5001252;28;20189;-59
2022/06/16 05:36:12;;;;;;;8.32;2.83;;;15.80;99.90;;;;;;5018831;28;20676;-60
2022/06/16 05:38:39;;;;;;;7.28;2.88;;;15.90;99.90;;;;;;5019623;28;20046;-60
2022/06/16 05:41:10;;;;;;;6.50;2.78;;;16.00;99.90;;;;;;5000322;28;20049;-60
2022/06/16 05:43:37;;;;;;;9.32;3.80;;;16.10;99.90;;;;;;5019926;28;20060;-60
2022/06/16 05:46:04;;;;;;;7.63;2.17;;;16.10;99.90;;;;;;5017614;28;20046;-58
2022/06/16 05:48:30;;;;;;;7.50;2.38;;;16.20;99.90;;;;;;5019535;28;20046;-59
2022/06/16 05:51:06;;;;;;;7.10;2.58;;;16.30;99.90;;;;;;5021123;28;20108;-59
2022/06/16 05:53:32;;;;;;;8.98;2.75;;;16.30;99.90;;;;;;5004873;28;20042;-59
2022/06/16 05:55:57;;;;;;;4.85;2.20;;;16.40;99.90;;;;;;5023317;28;20125;-59
2022/06/16 05:58:23;;;;;;;7.63;2.22;;;16.50;99.90;;;;;;5021483;28;20048;-59
2022/06/16 06:00:49;;;;;;;6.65;2.03;;;16.50;99.90;;;;;;5023386;28;20038;-60
2022/06/16 06:03:15;;;;;;;8.73;2.08;;;16.70;99.90;;;;;;5021521;28;20061;-59
2022/06/16 06:05:40;;;;;;;7.80;2.13;;;16.80;99.90;;;;;;5023099;28;20038;-59
2022/06/16 06:16:35;;;;;;;5.38;2.20;;;17.00;99.90;;;;;;5021757;28;20061;-60
2022/06/16 06:19:26;;;;;;;6.18;1.90;;;17.10;99.90;;;;;;5022232;28;20056;-60
2022/06/16 06:22:19;;;;;;;7.88;2.20;;;16.60;99.90;;;;;;5022597;28;20058;-60
2022/06/16 06:24:50;;;;;;;11.43;3.13;;;16.80;99.90;;;;;;5017416;28;20061;-59
2022/06/16 06:27:37;;;;;;;6.67;1.80;;;16.80;99.90;;;;;;5022677;28;20041;-60
2022/06/16 06:30:37;;;;;;;5.85;2.05;;;17.10;99.90;;;;;;5022467;28;20050;-60
2022/06/16 06:33:04;;;;;;;6.35;2.17;;;17.20;99.90;;;;;;4966513;28;20049;-60
2022/06/16 06:35:30;;;;;;;5.75;1.80;;;17.20;99.90;;;;;;5005335;28;20666;-60
2022/06/16 06:37:57;;;;;;;5.43;1.70;;;17.30;99.90;;;;;;5021470;28;20066;-59
2022/06/16 06:40:29;;;;;;;5.10;1.75;;;17.30;99.90;;;;;;5021972;28;20050;-59
2022/06/16 06:42:55;;;;;;;6.22;1.70;;;17.40;99.90;;;;;;5022474;28;20038;-59
2022/06/16 06:45:20;;;;;;;7.50;1.95;;;17.30;99.90;;;;;;5020770;28;20048;-60
2022/06/16 06:47:47;;;;;;;7.30;2.13;;;17.20;99.90;;;;;;5022789;28;20050;-59
2022/06/16 06:50:33;;;;;;;6.50;1.52;;;17.40;99.90;;;;;;5002945;28;20050;-57
2022/06/16 06:52:59;;;;;;;4.70;1.40;;;17.50;99.90;;;;;;5022143;28;20045;-58
2022/06/16 06:55:25;;;;;;;8.38;1.85;;;17.70;99.90;;;;;;5021543;28;20073;-58
2022/06/16 06:57:53;;;;;;;6.45;1.70;;;17.80;99.90;;;;;;5020969;28;20050;-60
2022/06/16 07:00:21;;;;;;;6.25;1.83;;;17.80;99.90;;;;;;5022481;28;20042;-59
2022/06/16 07:02:47;;;;;;;5.70;1.50;;;17.80;99.90;;;;;;5020090;28;20138;-59
2022/06/16 07:05:13;;;;;;;4.72;1.40;;;17.90;99.90;;;;;;5021904;28;20054;-59
2022/06/16 07:07:39;;;;;;;6.53;2.17;;;17.80;99.90;;;;;;5020239;28;20408;-59
2022/06/16 07:10:07;;;;;;;6.93;1.67;;;18.00;99.90;;;;;;5020995;28;20740;-57
2022/06/16 07:12:34;;;;;;;7.07;1.77;;;17.90;99.90;;;;;;5021111;28;20050;-58
2022/06/16 07:15:00;;;;;;;5.30;1.58;;;17.80;99.90;;;;;;5020578;28;20066;-59
2022/06/16 07:17:26;;;;;;;6.82;1.63;;;17.90;99.90;;;;;;5021664;28;20534;-59
2022/06/16 07:19:53;;;;;;;6.10;1.60;;;18.00;99.90;;;;;;5019899;28;20070;-59
2022/06/16 07:22:19;;;;;;;5.72;1.90;;;18.20;99.90;;;;;;5021506;28;20085;-59
2022/06/16 07:24:45;;;;;;;6.78;2.17;;;18.30;99.90;;;;;;5019881;28;20081;-60
2022/06/16 07:27:11;;;;;;;5.55;1.85;;;17.90;99.90;;;;;;5021418;28;20038;-60
2022/06/16 07:29:37;;;;;;;7.40;1.90;;;17.90;99.90;;;;;;5020913;28;20447;-59
2022/06/16 07:32:04;;;;;;;7.13;1.77;;;17.90;99.90;;;;;;5020716;28;20045;-59
2022/06/16 07:34:30;;;;;;;6.50;2.38;;;18.10;99.90;;;;;;5021652;28;20058;-59
2022/06/16 07:36:56;;;;;;;6.60;2.10;;;18.20;99.90;;;;;;5019768;28;20414;-58
2022/06/16 07:39:22;;;;;;;7.32;2.60;;;18.10;99.90;;;;;;5021713;28;20038;-60
2022/06/16 07:41:48;;;;;;;6.03;2.53;;;17.90;99.90;;;;;;5019934;28;20091;-59
2022/06/16 07:44:16;;;;;;;6.13;2.50;;;18.10;99.90;;;;;;5021176;28;20056;-59
2022/06/16 07:46:44;;;;;;;6.68;2.38;;;18.10;99.90;;;;;;5020674;28;20046;-59
2022/06/16 07:49:12;;;;;;;7.90;2.63;;;18.00;99.90;;;;;;5020387;28;20049;-59
2022/06/16 07:51:39;;;;;;;7.63;3.42;;;18.30;99.90;;;;;;5021344;28;20042;-57
2022/06/16 07:54:06;;;;;;;8.70;3.08;;;18.30;99.90;;;;;;5019273;28;20137;-59
2022/06/16 07:56:31;;;;;;;7.82;2.90;;;18.20;99.90;;;;;;5021492;28;20053;-59
2022/06/16 07:58:57;;;;;;;6.60;2.90;;;18.50;99.90;;;;;;5019621;28;20050;-58
2022/06/16 08:01:23;;;;;;;7.45;2.95;;;18.60;99.90;;;;;;5021009;28;20041;-58
2022/06/16 08:03:48;;;;;;;7.15;2.70;;;18.80;99.90;;;;;;5020220;28;20053;-60
2022/06/16 08:06:17;;;;;;;6.10;2.30;;;18.80;99.90;;;;;;5020174;28;20080;-61
2022/06/16 08:08:44;;;;;;;5.55;1.90;;;19.00;99.90;;;;;;5021131;28;20046;-60
2022/06/16 08:13:57;;;;;;;6.53;2.35;;;19.20;99.90;;;;;;5020117;28;20100;-60
2022/06/16 08:16:23;;;;;;;5.28;2.00;;;19.30;99.90;;;;;;5019893;28;20069;-59
2022/06/16 08:18:49;;;;;;;7.18;2.17;;;19.50;99.90;;;;;;5020210;28;20056;-60
2022/06/16 08:21:15;;;;;;;6.47;2.20;;;19.70;99.90;;;;;;5020269;28;20045;-60
2022/06/16 08:23:40;;;;;;;7.47;2.10;;;19.60;99.90;;;;;;5019537;28;20119;-59
2022/06/16 08:26:06;;;;;;;6.93;2.25;;;19.60;99.90;;;;;;5021041;28;20052;-59
2022/06/16 08:28:33;;;;;;;6.03;2.67;;;19.80;99.90;;;;;;5018793;28;20468;-59
2022/06/16 08:31:01;;;;;;;5.00;1.63;;;19.30;99.90;;;;;;5020772;28;20038;-59
2022/06/16 08:33:27;;;;;;;8.00;2.38;;;19.00;99.90;;;;;;5018990;28;20109;-58
2022/06/16 08:35:53;;;;;;;5.57;2.20;;;19.20;99.90;;;;;;5020126;28;20096;-59
2022/06/16 08:38:19;;;;;;;9.85;2.40;;;19.30;99.90;;;;;;5019869;28;20041;-59
2022/06/16 08:40:48;;;;;;;7.07;2.10;;;19.20;99.90;;;;;;5019099;28;20041;-59
2022/06/16 08:43:35;;;;;;;6.97;2.42;;;19.40;99.90;;;;;;5020651;28;20049;-59
2022/06/16 08:46:06;;;;;;;6.70;2.78;;;19.10;99.90;;;;;;5018626;28;20045;-59
2022/06/16 08:48:58;;;;;;;7.68;2.30;;;19.30;99.90;;;;;;5020033;28;20065;-59
2022/06/16 08:52:11;;;;;;;7.25;2.35;;;19.30;99.90;;;;;;5020359;28;20057;-60
2022/06/16 08:55:12;;;;;;;9.38;7.65;;;19.60;99.90;;;;;;4919160;29;20059;-60
2022/06/16 08:58:03;;;;;;;9.50;3.97;;;19.80;99.90;;;;;;4920546;29;20044;-60
2022/06/16 09:00:38;;;;;;;8.45;2.45;;;19.60;99.90;;;;;;5014285;28;20096;-60
2022/06/16 09:03:26;;;;;;;6.10;3.05;;;19.80;99.90;;;;;;5018577;28;20102;-60
2022/06/16 09:06:13;;;;;;;6.43;2.65;;;20.00;99.90;;;;;;5019569;28;20050;-60
2022/06/16 09:09:00;;;;;;;6.47;2.60;;;19.90;99.90;;;;;;5019804;28;20040;-60
2022/06/16 09:11:54;;;;;;;9.70;5.80;;;20.00;99.90;;;;;;5018165;28;20034;-60
2022/06/16 09:17:51;;;;;;;9.02;3.35;;;19.90;99.90;;;;;;5020033;28;20414;-60
2022/06/16 09:20:29;;;;;;;6.53;2.85;;;19.90;99.90;;;;;;5018174;28;20049;-60
2022/06/16 09:23:34;;;;;;;6.88;2.63;;;20.10;99.90;;;;;;5019191;28;20057;-60
2022/06/16 09:26:27;;;;;;;6.22;2.58;;;20.10;99.90;;;;;;5018497;28;20077;-60
2022/06/16 09:29:01;;;;;;;6.72;3.00;;;20.00;99.90;;;;;;5018089;28;20054;-59
2022/06/16 09:31:42;;;;;;;6.43;2.95;;;20.30;99.90;;;;;;5019229;28;20053;-59
2022/06/16 09:34:23;;;;;;;8.32;3.42;;;20.40;99.90;;;;;;5019490;28;20567;-59
2022/06/16 09:37:04;;;;;;;6.43;3.05;;;20.10;99.90;;;;;;5018046;28;20049;-60
2022/06/16 09:39:35;;;;;;;5.68;2.60;;;19.90;99.90;;;;;;5001953;28;20037;-60
2022/06/16 09:45:11;;;;;;;6.57;2.50;;;20.50;99.90;;;;;;5018285;28;19922;-59
2022/06/16 09:47:45;;;;;;;6.95;3.03;;;20.60;99.90;;;;;;5020063;28;20061;-59
2022/06/16 09:50:14;;;;;;;7.90;2.50;;;20.70;99.90;;;;;;5017601;28;20077;-59
2022/06/16 09:52:53;;;;;;;6.60;2.28;;;20.80;99.90;;;;;;5019492;28;20050;-60
2022/06/16 09:55:29;;;;;;;6.22;2.88;;;20.80;99.90;;;;;;5018689;28;20045;-59
2022/06/16 09:58:12;;;;;;;6.45;2.97;;;20.90;99.90;;;;;;5017931;28;20030;-60
2022/06/16 10:00:38;;;;;;;6.15;2.67;;;21.00;99.90;;;;;;5019739;28;20112;-60
2022/06/16 10:03:23;;;;;;;9.90;3.05;;;20.80;99.90;;;;;;5017661;28;20073;-60
2022/06/16 10:06:17;;;;;;;8.00;3.53;;;21.10;99.90;;;;;;5019055;28;20088;-59
2022/06/16 10:08:55;;;;;;;8.32;3.28;;;20.80;99.90;;;;;;5017382;28;20054;-59
2022/06/16 10:11:39;;;;;;;7.13;2.95;;;20.70;99.90;;;;;;5017524;28;20061;-59
2022/06/16 10:14:17;;;;;;;8.30;3.17;;;20.70;99.90;;;;;;5019153;28;20049;-60
2022/06/16 10:16:55;;;;;;;7.00;3.13;;;20.50;99.90;;;;;;5018692;28;20054;-60
2022/06/16 10:19:23;;;;;;;7.00;3.53;;;20.80;99.90;;;;;;5017984;28;20038;-60
2022/06/16 10:21:50;;;;;;;7.82;4.00;;;20.90;99.90;;;;;;5019109;28;20058;-60
2022/06/16 10:24:18;;;;;;;7.80;3.97;;;20.80;99.90;;;;;;5017706;28;20148;-60
2022/06/16 10:26:44;;;;;;;7.35;3.83;;;20.40;99.90;;;;;;5001716;28;20057;-60
2022/06/16 10:29:24;;;;;;;9.18;3.08;;;20.90;99.90;;;;;;5017943;28;20052;-60
2022/06/16 10:31:52;;;;;;;6.78;3.25;;;21.00;99.90;;;;;;5018456;28;20050;-60
2022/06/16 10:34:32;;;;;;;7.10;3.15;;;21.30;99.90;;;;;;5019012;28;20494;-60
2022/06/16 10:37:14;;;;;;;7.63;3.33;;;21.40;99.90;;;;;;5019680;28;20050;-61
2022/06/16 10:39:49;;;;;;;9.65;3.47;;;21.40;99.90;;;;;;5022658;28;20684;-60
2022/06/16 10:42:18;;;;;;;7.20;3.75;;;21.50;99.90;;;;;;5021665;28;20045;-59
2022/06/16 10:44:52;;;;;;;8.52;3.50;;;21.60;99.90;;;;;;5021587;28;20473;-60
2022/06/16 10:47:30;;;;;;;7.45;3.60;;;21.70;99.90;;;;;;5022795;28;20033;-59
2022/06/16 10:49:57;;;;;;;6.32;3.25;;;21.80;99.90;;;;;;5020598;28;20049;-59
2022/06/16 10:52:28;;;;;;;6.60;3.10;;;21.70;99.90;;;;;;5022386;28;20038;-60
2022/06/16 10:55:20;;;;;;;6.65;3.75;;;21.90;99.90;;;;;;5021111;28;20038;-59
2022/06/16 10:57:49;;;;;;;8.98;2.83;;;21.90;99.90;;;;;;5007577;28;20054;-59
2022/06/16 11:00:21;;;;;;;7.53;3.00;;;21.90;99.90;;;;;;5022576;28;20069;-59
2022/06/16 11:03:06;;;;;;;7.90;3.67;;;21.90;99.90;;;;;;5020480;28;20904;-59
2022/06/16 11:05:36;;;;;;;7.85;3.60;;;21.80;99.90;;;;;;5022137;28;20049;-59
2022/06/16 11:08:13;;;;;;;6.80;3.10;;;21.50;99.90;;;;;;5021382;28;20100;-58
2022/06/16 11:10:49;;;;;;;6.57;3.13;;;21.80;99.90;;;;;;5020728;28;20080;-59
2022/06/16 11:13:19;;;;;;;7.68;3.33;;;21.80;99.90;;;;;;5022419;28;20038;-59
2022/06/16 11:15:50;;;;;;;6.88;3.67;;;21.50;99.90;;;;;;5019972;28;20044;-58
2022/06/16 11:18:22;;;;;;;8.63;3.67;;;21.30;99.90;;;;;;5022105;28;20065;-59
2022/06/16 11:20:55;;;;;;;7.13;3.08;;;21.70;99.90;;;;;;5020862;28;20293;-59
2022/06/16 11:23:34;;;;;;;7.50;3.05;;;22.00;99.90;;;;;;5019731;28;20049;-60
2022/06/16 11:26:15;;;;;;;7.38;3.33;;;22.10;99.90;;;;;;5020893;28;20046;-60
2022/06/16 11:28:44;;;;;;;9.32;2.97;;;22.30;99.90;;;;;;5019293;28;20046;-59
2022/06/16 11:31:17;;;;;;;8.13;2.95;;;22.00;99.90;;;;;;5002833;28;20050;-59
2022/06/16 11:37:02;;;;;;;5.97;2.75;;;22.10;99.90;;;;;;5019063;28;20573;-60
2022/06/16 11:39:37;;;;;;;6.88;2.75;;;22.00;99.90;;;;;;5020671;28;20038;-58
2022/06/16 11:42:04;;;;;;;7.40;3.20;;;22.30;99.90;;;;;;5019112;28;20058;-59
2022/06/16 11:45:24;;;;;;;6.78;3.10;;;22.30;99.90;;;;;;5019963;28;20064;-59
2022/06/16 11:48:04;;;;;;;7.95;3.03;;;22.10;99.90;;;;;;4978215;28;20405;-60
2022/06/16 11:50:45;;;;;;;6.78;2.80;;;22.00;99.90;;;;;;4977426;28;20106;-59
2022/06/16 11:53:37;;;;;;;8.23;2.93;;;22.30;99.90;;;;;;5005834;28;20053;-59
2022/06/16 11:56:18;;;;;;;8.15;2.60;;;22.40;99.90;;;;;;5020830;28;20409;-59
2022/06/16 11:58:54;;;;;;;8.40;3.00;;;22.30;99.90;;;;;;5018492;28;20062;-59
2022/06/16 12:01:28;;;;;;;6.80;3.08;;;22.20;99.90;;;;;;5020183;28;20419;-59
2022/06/16 12:04:35;;;;;;;7.80;2.80;;;22.30;99.90;;;;;;5019554;28;20563;-58
2022/06/16 12:07:39;;;;;;;7.78;2.80;;;22.50;99.90;;;;;;5018510;28;20042;-59
2022/06/16 12:10:19;;;;;;;7.63;2.45;;;22.40;99.90;;;;;;5019532;28;20045;-59
2022/06/16 12:12:58;;;;;;;9.18;3.10;;;22.50;99.90;;;;;;5020027;28;20046;-59
2022/06/16 12:15:45;;;;;;;7.70;2.90;;;22.40;99.90;;;;;;5018206;28;20054;-59
2022/06/16 12:18:29;;;;;;;6.65;2.63;;;22.50;99.90;;;;;;5020031;28;20050;-60
2022/06/16 12:24:14;;;;;;;6.28;2.60;;;22.50;99.90;;;;;;5109993;27;20417;-51
2022/06/16 12:27:00;;;;;;;7.20;2.97;;;22.30;99.90;;;;;;5110030;28;20040;-51
2022/06/16 12:29:36;;;;;;;6.88;2.80;;;22.20;99.90;;;;;;5109356;28;20526;-49
2022/06/16 12:32:22;;;;;;;6.15;2.60;;;22.30;99.90;;;;;;5110044;28;20036;-49
2022/06/16 12:35:13;;;;;;;7.70;3.05;;;22.30;99.90;;;;;;5108669;28;20075;-52
2022/06/16 12:37:45;;;;;;;8.40;3.13;;;22.40;99.90;;;;;;5109968;28;20126;-50
2022/06/16 12:40:19;;;;;;;7.60;3.20;;;22.10;99.90;;;;;;5110010;28;20044;-50
2022/06/16 12:42:52;;;;;;;6.15;2.90;;;22.40;99.90;;;;;;5109633;28;20047;-50
2022/06/16 12:45:28;;;;;;;8.13;3.05;;;22.10;99.90;;;;;;5109577;28;20038;-48
2022/06/16 12:48:06;;;;;;;6.57;2.60;;;22.50;99.90;;;;;;5109522;28;20494;-49
2022/06/16 12:51:00;;;;;;;5.32;2.42;;;22.60;99.90;;;;;;5109851;28;20047;-49
2022/06/16 12:53:38;;;;;;;6.93;2.58;;;22.40;99.90;;;;;;5107219;28;20055;-48
2022/06/16 12:56:22;;;;;;;6.32;3.00;;;22.40;99.90;;;;;;5108206;28;20048;-51
2022/06/16 12:58:56;;;;;;;7.05;2.75;;;22.70;99.90;;;;;;5109344;28;20476;-53
2022/06/16 13:01:22;;;;;;;6.35;2.40;;;22.80;99.80;;;;;;5109471;28;20044;-52
2022/06/16 13:04:14;;;;;;;6.10;2.60;;;23.00;99.90;;;;;;5109206;28;20046;-52
2022/06/16 13:06:44;;;;;;;23.83;2.97;;;22.90;98.80;;;;;;5109564;28;20042;-53
2022/06/16 13:09:12;;;;;;;8.15;2.83;;;22.80;99.50;;;;;;5109272;28;20475;-52
2022/06/16 13:11:52;;;;;;;5.70;2.47;;;22.80;99.10;;;;;;5109312;28;20107;-51
2022/06/16 13:14:29;;;;;;;7.40;2.53;;;22.80;99.00;;;;;;5109079;28;20064;-52
2022/06/16 13:16:58;;;;;;;7.60;2.40;;;22.40;97.40;;;;;;5109298;28;20099;-49
2022/06/16 13:19:31;;;;;;;5.97;2.60;;;22.30;97.90;;;;;;5109025;28;20048;-49
2022/06/16 13:22:05;;;;;;;6.53;2.35;;;22.50;99.10;;;;;;5108577;28;20157;-50
2022/06/16 13:25:08;;;;;;;7.43;2.33;;;22.60;99.00;;;;;;5108911;28;20097;-48
2022/06/16 13:27:36;;;;;;;7.22;2.72;;;22.80;98.60;;;;;;5086931;28;20056;-51
2022/06/16 13:30:05;;;;;;;5.60;2.38;;;22.30;96.00;;;;;;5108633;28;20040;-50
2022/06/16 13:32:49;;;;;;;8.45;2.75;;;22.40;98.00;;;;;;5108862;28;20062;-49
2022/06/16 13:35:15;;;;;;;7.85;2.63;;;22.70;99.00;;;;;;5093335;28;20044;-49
2022/06/16 13:37:45;;;;;;;5.10;2.60;;;22.90;98.60;;;;;;5095130;28;20274;-49
2022/06/16 13:40:10;;;;;;;6.18;2.28;;;22.70;98.70;;;;;;5094960;28;20487;-51
2022/06/16 13:42:45;;;;;;;6.60;2.60;;;22.50;98.70;;;;;;5095188;28;20055;-53
2022/06/16 13:45:11;;;;;;;6.20;2.35;;;22.50;98.20;;;;;;5095059;28;20032;-49
2022/06/16 13:47:41;;;;;;;6.68;2.45;;;22.60;99.60;;;;;;5094970;28;20518;-52
2022/06/16 13:50:22;;;;;;;7.82;2.70;;;22.60;99.90;;;;;;5093559;28;20048;-50